sensor_id;sensor_type;location;lat;lon;timestamp;pressure;altitude;pressure_sealevel;temperature;humidity
34454;BME280;60061;52.080;5.312;2022-12-18T00:02:36;102789.00000000001;;;-2.06;100.0
34454;BME280;60061;52.080;5.312;2022-12-18T00:04:16;102781.0;;;-2.14;100.0
34454;BME280;60061;52.080;5.312;2022-12-18T00:05:59;102774.0;;;-2.1;100.0
34454;BME280;60061;52.080;5.312;2022-12-18T00:09:12;102771.0;;;-2.15;100.0
34454;BME280;60061;52.080;5.312;2022-12-18T00:10:48;102767.0;;;-2.26;100.0
34454;BME280;60061;52.080;5.312;2022-12-18T00:12:24;102756.0;;;-2.25;100.0
34454;BME280;60061;52.080;5.312;2022-12-18T00:15:38;102756.0;;;-2.4;100.0
34454;BME280;60061;52.080;5.312;2022-12-18T00:17:15;102750.0;;;-2.71;100.0
34454;BME280;60061;52.080;5.312;2022-12-18T00:18:52;102747.0;;;-2.57;100.0
34454;BME280;60061;52.080;5.312;2022-12-18T00:22:12;102743.0;;;-2.96;100.0
34454;BME280;60061;52.080;5.312;2022-12-18T00:23:49;102744.0;;;-2.71;100.0
34454;BME280;60061;52.080;5.312;2022-12-18T00:25:26;102736.99999999999;;;-2.52;100.0
34454;BME280;60061;52.080;5.312;2022-12-18T00:27:03;102748.0;;;-2.44;100.0
34454;BME280;60061;52.080;5.312;2022-12-18T00:28:39;102749.0;;;-2.5;100.0
34454;BME280;60061;52.080;5.312;2022-12-18T00:31:52;102756.0;;;-2.39;100.0
34454;BME280;60061;52.080;5.312;2022-12-18T00:33:29;102758.99999999999;;;-2.4;100.0
34454;BME280;60061;52.080;5.312;2022-12-18T00:35:06;102753.0;;;-2.42;100.0
34454;BME280;60061;52.080;5.312;2022-12-18T00:38:19;102750.0;;;-2.39;100.0
34454;BME280;60061;52.080;5.312;2022-12-18T00:39:55;102754.0;;;-2.31;100.0
34454;BME280;60061;52.080;5.312;2022-12-18T00:41:32;102756.0;;;-2.37;100.0
34454;BME280;60061;52.080;5.312;2022-12-18T00:44:45;102758.0;;;-2.29;100.0
34454;BME280;60061;52.080;5.312;2022-12-18T00:46:21;102759.99999999999;;;-2.34;100.0
34454;BME280;60061;52.080;5.312;2022-12-18T00:47:57;102756.0;;;-2.39;100.0
34454;BME280;60061;52.080;5.312;2022-12-18T00:49:33;102758.0;;;-2.45;100.0
34454;BME280;60061;52.080;5.312;2022-12-18T00:52:46;102754.0;;;-2.35;100.0
34454;BME280;60061;52.080;5.312;2022-12-18T00:54:22;102754.0;;;-2.18;100.0
34454;BME280;60061;52.080;5.312;2022-12-18T00:55:59;102754.0;;;-2.25;100.0
34454;BME280;60061;52.080;5.312;2022-12-18T00:59:11;102761.99999999999;;;-2.41;100.0
34454;BME280;60061;52.080;5.312;2022-12-18T01:00:48;102755.0;;;-2.38;100.0
34454;BME280;60061;52.080;5.312;2022-12-18T01:02:24;102751.0;;;-2.35;100.0
34454;BME280;60061;52.080;5.312;2022-12-18T01:05:39;102743.0;;;-2.58;100.0
34454;BME280;60061;52.080;5.312;2022-12-18T01:07:15;102743.0;;;-2.43;100.0
34454;BME280;60061;52.080;5.312;2022-12-18T01:08:52;102742.0;;;-2.38;100.0
34454;BME280;60061;52.080;5.312;2022-12-18T01:10:28;102747.0;;;-2.62;100.0
34454;BME280;60061;52.080;5.312;2022-12-18T01:15:18;102747.0;;;-3.04;100.0
34454;BME280;60061;52.080;5.312;2022-12-18T01:16:55;102755.0;;;-2.91;100.0
34454;BME280;60061;52.080;5.312;2022-12-18T01:20:09;102751.0;;;-2.96;100.0
34454;BME280;60061;52.080;5.312;2022-12-18T01:21:47;102751.0;;;-2.7;100.0
34454;BME280;60061;52.080;5.312;2022-12-18T01:23:23;102750.0;;;-2.64;100.0
34454;BME280;60061;52.080;5.312;2022-12-18T01:26:40;102754.0;;;-2.87;100.0
34454;BME280;60061;52.080;5.312;2022-12-18T01:28:17;102763.00000000001;;;-2.95;100.0
34454;BME280;60061;52.080;5.312;2022-12-18T01:29:53;102768.0;;;-2.78;100.0
34454;BME280;60061;52.080;5.312;2022-12-18T01:31:32;102766.00000000001;;;-2.77;100.0
34454;BME280;60061;52.080;5.312;2022-12-18T01:34:46;102759.99999999999;;;-2.72;100.0
34454;BME280;60061;52.080;5.312;2022-12-18T01:36:23;102764.00000000001;;;-2.84;100.0
34454;BME280;60061;52.080;5.312;2022-12-18T01:38:01;102763.00000000001;;;-2.9;100.0
34454;BME280;60061;52.080;5.312;2022-12-18T01:41:14;102769.0;;;-2.74;100.0
34454;BME280;60061;52.080;5.312;2022-12-18T01:42:55;102770.0;;;-2.72;100.0
34454;BME280;60061;52.080;5.312;2022-12-18T01:44:54;102772.0;;;-2.73;100.0
34454;BME280;60061;52.080;5.312;2022-12-18T01:46:57;102769.0;;;-2.73;100.0
34454;BME280;60061;52.080;5.312;2022-12-18T01:48:33;102766.00000000001;;;-2.97;100.0
34454;BME280;60061;52.080;5.312;2022-12-18T01:51:51;102768.0;;;-2.71;100.0
34454;BME280;60061;52.080;5.312;2022-12-18T01:53:28;102771.0;;;-2.74;100.0
34454;BME280;60061;52.080;5.312;2022-12-18T01:55:06;102774.0;;;-2.59;100.0
34454;BME280;60061;52.080;5.312;2022-12-18T01:56:42;102769.0;;;-2.56;100.0
34454;BME280;60061;52.080;5.312;2022-12-18T02:00:07;102770.0;;;-2.62;100.0
34454;BME280;60061;52.080;5.312;2022-12-18T02:01:43;102774.0;;;-2.7;100.0
34454;BME280;60061;52.080;5.312;2022-12-18T02:03:20;102769.0;;;-2.62;100.0
34454;BME280;60061;52.080;5.312;2022-12-18T02:04:56;102774.0;;;-2.63;100.0
34454;BME280;60061;52.080;5.312;2022-12-18T02:08:19;102777.0;;;-2.7;100.0
34454;BME280;60061;52.080;5.312;2022-12-18T02:10:06;102770.0;;;-2.79;100.0
34454;BME280;60061;52.080;5.312;2022-12-18T02:11:50;102769.0;;;-2.82;100.0
34454;BME280;60061;52.080;5.312;2022-12-18T02:13:37;102778.0;;;-2.73;100.0
34454;BME280;60061;52.080;5.312;2022-12-18T02:17:06;102786.99999999999;;;-2.59;100.0
34454;BME280;60061;52.080;5.312;2022-12-18T02:18:50;102779.0;;;-2.77;100.0
34454;BME280;60061;52.080;5.312;2022-12-18T02:20:34;102777.0;;;-2.86;100.0
34454;BME280;60061;52.080;5.312;2022-12-18T02:22:24;102782.0;;;-3.01;100.0
34454;BME280;60061;52.080;5.312;2022-12-18T02:24:18;102777.0;;;-2.84;100.0
34454;BME280;60061;52.080;5.312;2022-12-18T02:26:07;102780.0;;;-2.84;100.0
34454;BME280;60061;52.080;5.312;2022-12-18T02:29:30;102779.0;;;-2.91;100.0
34454;BME280;60061;52.080;5.312;2022-12-18T02:31:13;102781.0;;;-2.97;100.0
34454;BME280;60061;52.080;5.312;2022-12-18T02:32:53;102778.0;;;-3.07;100.0
34454;BME280;60061;52.080;5.312;2022-12-18T02:34:34;102773.0;;;-3.05;100.0
34454;BME280;60061;52.080;5.312;2022-12-18T02:37:53;102775.0;;;-3.11;100.0
34454;BME280;60061;52.080;5.312;2022-12-18T02:39:30;102771.0;;;-3.11;100.0
34454;BME280;60061;52.080;5.312;2022-12-18T02:41:09;102771.0;;;-3.2;100.0
34454;BME280;60061;52.080;5.312;2022-12-18T02:42:46;102769.0;;;-3.2;100.0
34454;BME280;60061;52.080;5.312;2022-12-18T02:45:59;102768.0;;;-3.22;100.0
34454;BME280;60061;52.080;5.312;2022-12-18T02:47:56;102763.00000000001;;;-3.08;100.0
34454;BME280;60061;52.080;5.312;2022-12-18T02:49:36;102759.99999999999;;;-3.03;100.0
34454;BME280;60061;52.080;5.312;2022-12-18T02:51:24;102761.99999999999;;;-3.02;99.56
34454;BME280;60061;52.080;5.312;2022-12-18T02:53:10;102756.0;;;-3.09;99.43
34454;BME280;60061;52.080;5.312;2022-12-18T02:56:46;102759.99999999999;;;-3.17;99.43
34454;BME280;60061;52.080;5.312;2022-12-18T02:58:30;102764.00000000001;;;-3.39;100.0
34454;BME280;60061;52.080;5.312;2022-12-18T03:00:12;102761.99999999999;;;-3.49;100.0
34454;BME280;60061;52.080;5.312;2022-12-18T03:01:56;102763.00000000001;;;-3.55;100.0
34454;BME280;60061;52.080;5.312;2022-12-18T03:03:38;102766.00000000001;;;-3.58;100.0
34454;BME280;60061;52.080;5.312;2022-12-18T03:07:02;102756.0;;;-3.66;100.0
34454;BME280;60061;52.080;5.312;2022-12-18T03:08:44;102757.0;;;-3.72;100.0
34454;BME280;60061;52.080;5.312;2022-12-18T03:10:28;102749.0;;;-3.77;100.0
34454;BME280;60061;52.080;5.312;2022-12-18T03:12:08;102749.0;;;-3.76;100.0
34454;BME280;60061;52.080;5.312;2022-12-18T03:15:35;102743.0;;;-3.73;100.0
34454;BME280;60061;52.080;5.312;2022-12-18T03:17:16;102739.00000000001;;;-3.65;99.43
34454;BME280;60061;52.080;5.312;2022-12-18T03:18:58;102732.0;;;-3.71;98.38
34454;BME280;60061;52.080;5.312;2022-12-18T03:20:39;102733.99999999999;;;-3.67;97.52
34454;BME280;60061;52.080;5.312;2022-12-18T03:22:20;102728.0;;;-3.82;98.06
34454;BME280;60061;52.080;5.312;2022-12-18T03:25:40;102733.99999999999;;;-4.01;100.0
34454;BME280;60061;52.080;5.312;2022-12-18T03:27:20;102727.0;;;-4.09;100.0
34454;BME280;60061;52.080;5.312;2022-12-18T03:29:02;102724.0;;;-4.09;100.0
34454;BME280;60061;52.080;5.312;2022-12-18T03:30:44;102726.0;;;-4.09;100.0
34454;BME280;60061;52.080;5.312;2022-12-18T03:34:09;102716.00000000001;;;-4.06;99.56
34454;BME280;60061;52.080;5.312;2022-12-18T03:35:49;102714.00000000001;;;-4.0;98.49
34454;BME280;60061;52.080;5.312;2022-12-18T03:37:26;102708.0;;;-4.19;99.36
34454;BME280;60061;52.080;5.312;2022-12-18T03:39:02;102708.99999999999;;;-4.28;99.92
34454;BME280;60061;52.080;5.312;2022-12-18T03:42:40;102713.00000000001;;;-4.3;100.0
34454;BME280;60061;52.080;5.312;2022-12-18T03:44:28;102708.99999999999;;;-4.35;100.0
34454;BME280;60061;52.080;5.312;2022-12-18T03:46:12;102715.00000000001;;;-4.37;100.0
34454;BME280;60061;52.080;5.312;2022-12-18T03:47:58;102709.99999999999;;;-4.42;100.0
34454;BME280;60061;52.080;5.312;2022-12-18T03:49:40;102713.00000000001;;;-4.45;100.0
34454;BME280;60061;52.080;5.312;2022-12-18T03:53:15;102714.00000000001;;;-4.45;100.0
34454;BME280;60061;52.080;5.312;2022-12-18T03:54:55;102708.99999999999;;;-4.42;100.0
34454;BME280;60061;52.080;5.312;2022-12-18T03:56:37;102708.0;;;-4.38;98.95
34454;BME280;60061;52.080;5.312;2022-12-18T03:58:19;102711.99999999999;;;-4.47;98.54
34454;BME280;60061;52.080;5.312;2022-12-18T04:00:00;102704.0;;;-4.38;98.62
34454;BME280;60061;52.080;5.312;2022-12-18T04:03:20;102706.0;;;-4.31;97.46
34454;BME280;60061;52.080;5.312;2022-12-18T04:04:59;102700.0;;;-4.32;98.56
34454;BME280;60061;52.080;5.312;2022-12-18T04:06:38;102692.0;;;-4.38;98.45
34454;BME280;60061;52.080;5.312;2022-12-18T04:09:55;102688.00000000001;;;-4.44;98.68
34454;BME280;60061;52.080;5.312;2022-12-18T04:11:32;102683.99999999999;;;-4.48;98.89
34454;BME280;60061;52.080;5.312;2022-12-18T04:13:09;102682.0;;;-4.52;98.99
34454;BME280;60061;52.080;5.312;2022-12-18T04:14:45;102679.0;;;-4.59;97.96
34454;BME280;60061;52.080;5.312;2022-12-18T04:17:57;102675.0;;;-4.67;100.0
34454;BME280;60061;52.080;5.312;2022-12-18T04:19:33;102670.0;;;-4.72;100.0
34454;BME280;60061;52.080;5.312;2022-12-18T04:21:10;102666.00000000001;;;-4.74;100.0
34454;BME280;60061;52.080;5.312;2022-12-18T04:24:24;102667.0;;;-4.71;99.57
34454;BME280;60061;52.080;5.312;2022-12-18T04:26:00;102673.0;;;-4.72;98.99
34454;BME280;60061;52.080;5.312;2022-12-18T04:27:36;102674.0;;;-4.72;97.88
34454;BME280;60061;52.080;5.312;2022-12-18T04:30:49;102667.0;;;-4.74;97.65
34454;BME280;60061;52.080;5.312;2022-12-18T04:32:25;102668.0;;;-4.83;98.28
34454;BME280;60061;52.080;5.312;2022-12-18T04:34:01;102670.0;;;-4.87;97.5
34454;BME280;60061;52.080;5.312;2022-12-18T04:35:37;102671.0;;;-4.86;96.77
34454;BME280;60061;52.080;5.312;2022-12-18T04:38:49;102675.0;;;-4.96;97.55
34454;BME280;60061;52.080;5.312;2022-12-18T04:40:25;102682.0;;;-4.98;97.64
34454;BME280;60061;52.080;5.312;2022-12-18T04:42:02;102691.00000000001;;;-4.94;95.75
34454;BME280;60061;52.080;5.312;2022-12-18T04:45:14;102691.00000000001;;;-4.98;95.91
34454;BME280;60061;52.080;5.312;2022-12-18T04:46:50;102691.00000000001;;;-4.99;95.52
34454;BME280;60061;52.080;5.312;2022-12-18T04:48:26;102695.0;;;-4.99;97.05
34454;BME280;60061;52.080;5.312;2022-12-18T04:51:40;102702.0;;;-4.96;97.29
34454;BME280;60061;52.080;5.312;2022-12-18T04:53:16;102704.0;;;-4.96;96.38
34454;BME280;60061;52.080;5.312;2022-12-18T04:54:53;102703.0;;;-5.06;96.06
34454;BME280;60061;52.080;5.312;2022-12-18T04:56:30;102701.0;;;-5.1;95.6
34454;BME280;60061;52.080;5.312;2022-12-18T04:59:43;102695.0;;;-5.09;95.31
34454;BME280;60061;52.080;5.312;2022-12-18T05:01:19;102704.0;;;-5.2;96.01
34454;BME280;60061;52.080;5.312;2022-12-18T05:02:55;102714.00000000001;;;-5.12;96.12
34454;BME280;60061;52.080;5.312;2022-12-18T05:06:08;102717.0;;;-5.09;96.77
34454;BME280;60061;52.080;5.312;2022-12-18T05:07:45;102724.0;;;-5.14;97.37
34454;BME280;60061;52.080;5.312;2022-12-18T05:09:21;102725.0;;;-5.09;96.84
34454;BME280;60061;52.080;5.312;2022-12-18T05:12:37;102719.0;;;-5.22;96.08
34454;BME280;60061;52.080;5.312;2022-12-18T05:14:13;102723.0;;;-5.1;96.29
34454;BME280;60061;52.080;5.312;2022-12-18T05:15:51;102722.0;;;-5.0;97.21
34454;BME280;60061;52.080;5.312;2022-12-18T05:17:28;102726.0;;;-5.04;96.95
34454;BME280;60061;52.080;5.312;2022-12-18T05:20:41;102726.0;;;-5.09;95.37
34454;BME280;60061;52.080;5.312;2022-12-18T05:22:17;102728.0;;;-5.19;95.51
34454;BME280;60061;52.080;5.312;2022-12-18T05:23:53;102729.0;;;-5.17;95.25
34454;BME280;60061;52.080;5.312;2022-12-18T05:27:05;102732.0;;;-5.21;97.89
34454;BME280;60061;52.080;5.312;2022-12-18T05:28:42;102734.99999999999;;;-5.16;98.51
34454;BME280;60061;52.080;5.312;2022-12-18T05:30:18;102738.00000000001;;;-5.24;97.92
34454;BME280;60061;52.080;5.312;2022-12-18T05:33:32;102743.0;;;-5.24;97.65
34454;BME280;60061;52.080;5.312;2022-12-18T05:35:12;102743.0;;;-5.19;96.14
34454;BME280;60061;52.080;5.312;2022-12-18T05:36:48;102742.0;;;-5.3;95.66
34454;BME280;60061;52.080;5.312;2022-12-18T05:38:25;102736.99999999999;;;-5.22;95.21
34454;BME280;60061;52.080;5.312;2022-12-18T05:41:40;102728.0;;;-5.39;99.38
34454;BME280;60061;52.080;5.312;2022-12-18T05:43:17;102723.0;;;-5.41;98.21
34454;BME280;60061;52.080;5.312;2022-12-18T05:44:54;102720.0;;;-5.46;99.62
34454;BME280;60061;52.080;5.312;2022-12-18T05:48:07;102726.0;;;-5.51;100.0
34454;BME280;60061;52.080;5.312;2022-12-18T05:49:43;102716.00000000001;;;-5.52;100.0
34454;BME280;60061;52.080;5.312;2022-12-18T05:51:21;102709.99999999999;;;-5.51;100.0
34454;BME280;60061;52.080;5.312;2022-12-18T05:52:58;102709.99999999999;;;-5.56;100.0
34454;BME280;60061;52.080;5.312;2022-12-18T05:56:12;102718.0;;;-5.54;98.73
34454;BME280;60061;52.080;5.312;2022-12-18T05:57:50;102715.00000000001;;;-5.35;96.81
34454;BME280;60061;52.080;5.312;2022-12-18T05:59:26;102708.0;;;-5.52;98.8
34454;BME280;60061;52.080;5.312;2022-12-18T06:02:46;102704.0;;;-5.51;96.74
34454;BME280;60061;52.080;5.312;2022-12-18T06:04:23;102699.0;;;-5.53;95.57
34454;BME280;60061;52.080;5.312;2022-12-18T06:05:59;102697.0;;;-5.52;97.04
34454;BME280;60061;52.080;5.312;2022-12-18T06:07:35;102695.0;;;-5.52;99.02
34454;BME280;60061;52.080;5.312;2022-12-18T06:10:50;102692.0;;;-5.5;99.81
34454;BME280;60061;52.080;5.312;2022-12-18T06:12:27;102696.0;;;-5.59;100.0
34454;BME280;60061;52.080;5.312;2022-12-18T06:14:05;102694.0;;;-5.69;98.39
34454;BME280;60061;52.080;5.312;2022-12-18T06:17:17;102683.0;;;-5.66;98.22
34454;BME280;60061;52.080;5.312;2022-12-18T06:18:56;102673.0;;;-5.68;100.0
34454;BME280;60061;52.080;5.312;2022-12-18T06:20:32;102677.0;;;-5.69;99.99
34454;BME280;60061;52.080;5.312;2022-12-18T06:23:44;102682.0;;;-5.7;100.0
34454;BME280;60061;52.080;5.312;2022-12-18T06:25:20;102667.0;;;-5.66;100.0
34454;BME280;60061;52.080;5.312;2022-12-18T06:26:57;102670.0;;;-5.64;100.0
34454;BME280;60061;52.080;5.312;2022-12-18T06:28:33;102672.0;;;-5.62;99.82
34454;BME280;60061;52.080;5.312;2022-12-18T06:31:46;102675.0;;;-5.53;99.6
34454;BME280;60061;52.080;5.312;2022-12-18T06:33:26;102675.0;;;-5.51;100.0
34454;BME280;60061;52.080;5.312;2022-12-18T06:35:03;102675.0;;;-5.52;100.0
34454;BME280;60061;52.080;5.312;2022-12-18T06:38:16;102678.0;;;-5.45;100.0
34454;BME280;60061;52.080;5.312;2022-12-18T06:39:52;102670.0;;;-5.4;100.0
34454;BME280;60061;52.080;5.312;2022-12-18T06:41:28;102668.0;;;-5.39;100.0
34454;BME280;60061;52.080;5.312;2022-12-18T06:44:42;102666.00000000001;;;-5.33;100.0
34454;BME280;60061;52.080;5.312;2022-12-18T06:46:18;102667.0;;;-5.32;100.0
34454;BME280;60061;52.080;5.312;2022-12-18T06:47:55;102658.99999999999;;;-5.36;100.0
34454;BME280;60061;52.080;5.312;2022-12-18T06:49:31;102651.0;;;-5.36;100.0
34454;BME280;60061;52.080;5.312;2022-12-18T06:52:44;102643.0;;;-5.33;100.0
34454;BME280;60061;52.080;5.312;2022-12-18T06:54:20;102648.0;;;-5.2;100.0
34454;BME280;60061;52.080;5.312;2022-12-18T06:56:00;102640.00000000001;;;-5.01;100.0
34454;BME280;60061;52.080;5.312;2022-12-18T06:59:14;102639.00000000001;;;-5.0;100.0
34454;BME280;60061;52.080;5.312;2022-12-18T07:00:50;102639.00000000001;;;-5.13;100.0
34454;BME280;60061;52.080;5.312;2022-12-18T07:02:27;102634.99999999999;;;-5.1;100.0
34454;BME280;60061;52.080;5.312;2022-12-18T07:04:03;102634.99999999999;;;-5.13;100.0
34454;BME280;60061;52.080;5.312;2022-12-18T07:07:16;102641.00000000001;;;-5.2;99.96
34454;BME280;60061;52.080;5.312;2022-12-18T07:08:54;102642.0;;;-5.21;100.0
34454;BME280;60061;52.080;5.312;2022-12-18T07:10:31;102633.99999999999;;;-5.19;100.0
34454;BME280;60061;52.080;5.312;2022-12-18T07:13:44;102630.0;;;-5.25;100.0
34454;BME280;60061;52.080;5.312;2022-12-18T07:15:20;102625.0;;;-5.2;100.0
34454;BME280;60061;52.080;5.312;2022-12-18T07:16:57;102627.0;;;-5.14;100.0
34454;BME280;60061;52.080;5.312;2022-12-18T07:20:10;102616.00000000001;;;-5.22;100.0
34454;BME280;60061;52.080;5.312;2022-12-18T07:21:46;102611.99999999999;;;-5.14;100.0
34454;BME280;60061;52.080;5.312;2022-12-18T07:23:22;102608.99999999999;;;-5.12;100.0
34454;BME280;60061;52.080;5.312;2022-12-18T07:24:58;102613.00000000001;;;-5.06;100.0
34454;BME280;60061;52.080;5.312;2022-12-18T07:28:11;102617.0;;;-5.09;100.0
34454;BME280;60061;52.080;5.312;2022-12-18T07:29:47;102622.0;;;-5.09;100.0
34454;BME280;60061;52.080;5.312;2022-12-18T07:31:24;102618.0;;;-5.13;100.0
34454;BME280;60061;52.080;5.312;2022-12-18T07:34:37;102614.00000000001;;;-5.09;100.0
34454;BME280;60061;52.080;5.312;2022-12-18T07:36:13;102608.0;;;-5.04;100.0
34454;BME280;60061;52.080;5.312;2022-12-18T07:37:50;102598.0;;;-5.0;100.0
34454;BME280;60061;52.080;5.312;2022-12-18T07:41:04;102591.00000000001;;;-5.0;100.0
34454;BME280;60061;52.080;5.312;2022-12-18T07:42:41;102582.0;;;-4.79;100.0
34454;BME280;60061;52.080;5.312;2022-12-18T07:44:17;102581.0;;;-4.82;100.0
34454;BME280;60061;52.080;5.312;2022-12-18T07:45:55;102578.0;;;-4.77;100.0
34454;BME280;60061;52.080;5.312;2022-12-18T07:49:10;102576.0;;;-4.77;100.0
34454;BME280;60061;52.080;5.312;2022-12-18T07:50:47;102577.0;;;-4.85;100.0
34454;BME280;60061;52.080;5.312;2022-12-18T07:52:22;102575.0;;;-4.85;100.0
34454;BME280;60061;52.080;5.312;2022-12-18T07:55:35;102575.0;;;-4.87;100.0
34454;BME280;60061;52.080;5.312;2022-12-18T07:57:12;102572.0;;;-4.86;100.0
34454;BME280;60061;52.080;5.312;2022-12-18T07:58:48;102572.0;;;-4.8;100.0
34454;BME280;60061;52.080;5.312;2022-12-18T08:02:00;102573.0;;;-4.8;100.0
34454;BME280;60061;52.080;5.312;2022-12-18T08:03:38;102563.00000000001;;;-4.67;100.0
34454;BME280;60061;52.080;5.312;2022-12-18T08:05:15;102561.99999999999;;;-4.67;100.0
34454;BME280;60061;52.080;5.312;2022-12-18T08:06:51;102557.0;;;-4.51;100.0
34454;BME280;60061;52.080;5.312;2022-12-18T08:10:05;102553.0;;;-4.62;100.0
34454;BME280;60061;52.080;5.312;2022-12-18T08:11:42;102554.0;;;-4.56;100.0
34454;BME280;60061;52.080;5.312;2022-12-18T08:13:19;102546.0;;;-4.44;100.0
34454;BME280;60061;52.080;5.312;2022-12-18T08:16:31;102552.0;;;-4.44;100.0
34454;BME280;60061;52.080;5.312;2022-12-18T08:18:08;102557.0;;;-4.36;100.0
34454;BME280;60061;52.080;5.312;2022-12-18T08:19:43;102563.00000000001;;;-4.43;100.0
34454;BME280;60061;52.080;5.312;2022-12-18T08:22:58;102559.99999999999;;;-4.42;100.0
34454;BME280;60061;52.080;5.312;2022-12-18T08:24:34;102571.0;;;-4.27;100.0
34454;BME280;60061;52.080;5.312;2022-12-18T08:26:11;102577.0;;;-4.08;100.0
34454;BME280;60061;52.080;5.312;2022-12-18T08:27:47;102577.0;;;-4.13;100.0
34454;BME280;60061;52.080;5.312;2022-12-18T08:31:00;102579.0;;;-4.12;100.0
34454;BME280;60061;52.080;5.312;2022-12-18T08:32:36;102581.0;;;-4.18;100.0
34454;BME280;60061;52.080;5.312;2022-12-18T08:34:11;102583.0;;;-4.18;100.0
34454;BME280;60061;52.080;5.312;2022-12-18T08:37:24;102584.99999999999;;;-4.13;100.0
34454;BME280;60061;52.080;5.312;2022-12-18T08:39:00;102588.00000000001;;;-4.21;100.0
34454;BME280;60061;52.080;5.312;2022-12-18T08:40:37;102591.00000000001;;;-4.13;100.0
34454;BME280;60061;52.080;5.312;2022-12-18T08:43:48;102586.99999999999;;;-4.09;100.0
34454;BME280;60061;52.080;5.312;2022-12-18T08:45:25;102579.0;;;-4.17;100.0
34454;BME280;60061;52.080;5.312;2022-12-18T08:47:01;102571.0;;;-4.09;100.0
34454;BME280;60061;52.080;5.312;2022-12-18T08:50:14;102567.0;;;-4.02;100.0
34454;BME280;60061;52.080;5.312;2022-12-18T08:51:54;102557.0;;;-4.02;100.0
34454;BME280;60061;52.080;5.312;2022-12-18T08:53:30;102567.0;;;-3.88;100.0
34454;BME280;60061;52.080;5.312;2022-12-18T08:55:08;102567.0;;;-3.87;100.0
34454;BME280;60061;52.080;5.312;2022-12-18T08:58:21;102569.0;;;-3.77;100.0
34454;BME280;60061;52.080;5.312;2022-12-18T08:59:57;102574.0;;;-3.78;100.0
34454;BME280;60061;52.080;5.312;2022-12-18T09:01:33;102571.0;;;-3.75;100.0
34454;BME280;60061;52.080;5.312;2022-12-18T09:04:48;102567.0;;;-3.65;100.0
34454;BME280;60061;52.080;5.312;2022-12-18T09:06:24;102566.00000000001;;;-3.67;100.0
34454;BME280;60061;52.080;5.312;2022-12-18T09:08:00;102558.99999999999;;;-3.66;100.0
34454;BME280;60061;52.080;5.312;2022-12-18T09:09:36;102565.00000000001;;;-3.48;100.0
34454;BME280;60061;52.080;5.312;2022-12-18T09:12:54;102557.0;;;-3.45;100.0
34454;BME280;60061;52.080;5.312;2022-12-18T09:14:30;102564.00000000001;;;-3.49;100.0
34454;BME280;60061;52.080;5.312;2022-12-18T09:16:06;102570.0;;;-3.5;100.0
34454;BME280;60061;52.080;5.312;2022-12-18T09:19:19;102572.0;;;-3.31;100.0
34454;BME280;60061;52.080;5.312;2022-12-18T09:20:55;102578.0;;;-3.17;100.0
34454;BME280;60061;52.080;5.312;2022-12-18T09:22:31;102566.00000000001;;;-3.2;100.0
34454;BME280;60061;52.080;5.312;2022-12-18T09:27:25;102570.0;;;-3.14;100.0
34454;BME280;60061;52.080;5.312;2022-12-18T09:29:02;102567.0;;;-3.09;100.0
34454;BME280;60061;52.080;5.312;2022-12-18T09:30:39;102569.0;;;-3.13;100.0
34454;BME280;60061;52.080;5.312;2022-12-18T09:33:54;102570.0;;;-3.04;100.0
34454;BME280;60061;52.080;5.312;2022-12-18T09:35:31;102558.0;;;-2.99;100.0
34454;BME280;60061;52.080;5.312;2022-12-18T09:37:07;102547.0;;;-3.02;100.0
34454;BME280;60061;52.080;5.312;2022-12-18T09:40:22;102542.0;;;-3.0;100.0
34454;BME280;60061;52.080;5.312;2022-12-18T09:42:02;102541.00000000001;;;-2.96;100.0
34454;BME280;60061;52.080;5.312;2022-12-18T09:43:41;102538.00000000001;;;-2.99;100.0
34454;BME280;60061;52.080;5.312;2022-12-18T09:45:21;102538.00000000001;;;-2.8;100.0
34454;BME280;60061;52.080;5.312;2022-12-18T09:48:47;102525.0;;;-2.75;100.0
34454;BME280;60061;52.080;5.312;2022-12-18T09:50:29;102525.0;;;-2.67;100.0
34454;BME280;60061;52.080;5.312;2022-12-18T09:52:12;102528.0;;;-2.55;100.0
34454;BME280;60061;52.080;5.312;2022-12-18T09:53:55;102527.0;;;-2.47;100.0
34454;BME280;60061;52.080;5.312;2022-12-18T09:57:15;102521.0;;;-2.4;100.0
34454;BME280;60061;52.080;5.312;2022-12-18T09:58:58;102526.0;;;-2.31;100.0
34454;BME280;60061;52.080;5.312;2022-12-18T10:00:35;102532.0;;;-2.47;100.0
34454;BME280;60061;52.080;5.312;2022-12-18T10:02:15;102526.0;;;-2.25;100.0
34454;BME280;60061;52.080;5.312;2022-12-18T10:05:35;102523.0;;;-2.18;100.0
34454;BME280;60061;52.080;5.312;2022-12-18T10:07:29;102521.0;;;-2.26;100.0
34454;BME280;60061;52.080;5.312;2022-12-18T10:09:15;102524.0;;;-2.28;100.0
34454;BME280;60061;52.080;5.312;2022-12-18T10:11:01;102521.0;;;-2.2;100.0
34454;BME280;60061;52.080;5.312;2022-12-18T10:12:50;102505.0;;;-2.29;100.0
34454;BME280;60061;52.080;5.312;2022-12-18T10:14:36;102499.0;;;-2.28;100.0
34454;BME280;60061;52.080;5.312;2022-12-18T10:18:11;102501.0;;;-2.25;100.0
34454;BME280;60061;52.080;5.312;2022-12-18T10:20:00;102507.0;;;-2.09;100.0
34454;BME280;60061;52.080;5.312;2022-12-18T10:21:43;102514.00000000001;;;-2.0;100.0
34454;BME280;60061;52.080;5.312;2022-12-18T10:23:28;102526.0;;;-2.1;100.0
34454;BME280;60061;52.080;5.312;2022-12-18T10:25:17;102523.0;;;-1.96;100.0
34454;BME280;60061;52.080;5.312;2022-12-18T10:28:45;102519.0;;;-1.91;100.0
34454;BME280;60061;52.080;5.312;2022-12-18T10:30:24;102516.00000000001;;;-1.84;100.0
34454;BME280;60061;52.080;5.312;2022-12-18T10:32:02;102508.0;;;-1.81;100.0
34454;BME280;60061;52.080;5.312;2022-12-18T10:33:38;102511.99999999999;;;-1.82;100.0
34454;BME280;60061;52.080;5.312;2022-12-18T10:36:56;102506.0;;;-1.72;99.55
34454;BME280;60061;52.080;5.312;2022-12-18T10:38:33;102497.0;;;-1.67;99.39
34454;BME280;60061;52.080;5.312;2022-12-18T10:40:11;102502.0;;;-1.65;98.89
34454;BME280;60061;52.080;5.312;2022-12-18T10:43:27;102504.0;;;-1.65;99.34
34454;BME280;60061;52.080;5.312;2022-12-18T10:45:09;102500.0;;;-1.55;99.38
34454;BME280;60061;52.080;5.312;2022-12-18T10:46:53;102486.99999999999;;;-1.54;99.15
34454;BME280;60061;52.080;5.312;2022-12-18T10:48:30;102478.0;;;-1.45;99.87